createdAt,value
2018-08-30T00:01:04.700Z,23.61
2018-08-30T00:02:14.643Z,23.61
2018-08-30T00:03:24.588Z,23.63
2018-08-30T00:04:33.751Z,23.65
2018-08-30T00:05:43.415Z,23.66
2018-08-30T00:06:53.090Z,23.61
2018-08-30T00:08:03.026Z,23.61
2018-08-30T00:09:12.950Z,23.6
2018-08-30T00:10:22.664Z,23.61
2018-08-30T00:11:32.137Z,23.63
2018-08-30T00:12:41.286Z,23.6
2018-08-30T00:13:50.453Z,23.58
2018-08-30T00:14:59.629Z,23.66
2018-08-30T00:16:08.821Z,23.68
2018-08-30T00:17:17.716Z,23.65
2018-08-30T00:18:27.141Z,23.61
2018-08-30T00:19:36.804Z,23.61
2018-08-30T00:20:46.539Z,23.68
2018-08-30T00:21:55.705Z,23.61
2018-08-30T00:23:05.150Z,23.61
2018-08-30T00:24:14.819Z,23.57
2018-08-30T00:25:24.006Z,23.57
2018-08-30T00:26:33.693Z,23.58
2018-08-30T00:27:42.874Z,23.57
2018-08-30T00:28:51.787Z,23.58
2018-08-30T00:30:01.216Z,23.57
2018-08-30T00:31:11.152Z,23.54
2018-08-30T00:32:20.329Z,23.53
2018-08-30T00:33:29.751Z,23.53
2018-08-30T00:34:38.919Z,23.6
2018-08-30T00:35:47.840Z,23.58
2018-08-30T00:36:57.051Z,23.55
2018-08-30T00:38:06.716Z,23.6
2018-08-30T00:39:16.137Z,23.54
2018-08-30T00:40:25.543Z,23.48
2018-08-30T00:41:34.973Z,23.55
2018-08-30T00:42:44.132Z,23.51
2018-08-30T00:43:53.819Z,23.58
2018-08-30T00:45:03.239Z,23.53
2018-08-30T00:46:12.673Z,23.54
2018-08-30T00:47:22.080Z,23.54
2018-08-30T00:48:30.985Z,23.57
2018-08-30T00:49:40.401Z,23.51
2018-08-30T00:50:49.565Z,23.54
2018-08-30T00:51:58.977Z,23.53
2018-08-30T00:53:08.651Z,23.51
2018-08-30T00:54:17.808Z,23.53
2018-08-30T00:55:27.473Z,23.47
2018-08-30T00:56:36.683Z,23.55
2018-08-30T00:57:45.852Z,23.54
2018-08-30T00:58:55.516Z,23.51
2018-08-30T01:00:04.930Z,23.46
2018-08-30T01:01:13.845Z,23.5
2018-08-30T01:02:23.253Z,23.48
2018-08-30T01:03:33.206Z,23.54
2018-08-30T01:04:41.870Z,23.43
2018-08-30T01:05:51.815Z,23.47
2018-08-30T01:07:01.494Z,23.5
2018-08-30T01:08:10.917Z,23.5
2018-08-30T01:09:20.837Z,23.5
2018-08-30T01:10:29.494Z,23.5
2018-08-30T01:11:39.191Z,23.53
2018-08-30T01:12:48.352Z,23.53
2018-08-30T01:13:57.773Z,23.48
2018-08-30T01:15:06.695Z,23.48
2018-08-30T01:16:15.844Z,23.6
2018-08-30T01:17:24.995Z,23.42
2018-08-30T01:18:34.417Z,23.43
2018-08-30T01:19:44.352Z,23.46
2018-08-30T01:20:53.517Z,23.53
2018-08-30T01:22:02.673Z,23.54
2018-08-30T01:23:12.351Z,23.48
2018-08-30T01:24:21.779Z,23.43
2018-08-30T01:25:30.710Z,23.53
2018-08-30T01:26:39.886Z,23.46
2018-08-30T01:27:49.305Z,23.53
2018-08-30T01:28:58.709Z,23.42
2018-08-30T01:30:07.880Z,23.43
2018-08-30T01:31:17.558Z,23.47
2018-08-30T01:32:26.744Z,23.47
2018-08-30T01:33:36.172Z,23.46
2018-08-30T01:34:45.069Z,23.48
2018-08-30T01:35:54.258Z,23.55
2018-08-30T01:37:03.683Z,23.46
2018-08-30T01:38:13.364Z,23.48
2018-08-30T01:39:23.037Z,23.42
2018-08-30T01:40:32.192Z,23.4
2018-08-30T01:41:41.891Z,23.42
2018-08-30T01:42:51.057Z,23.39
2018-08-30T01:44:00.482Z,23.42
2018-08-30T01:45:10.150Z,23.42
2018-08-30T01:46:19.364Z,23.39
2018-08-30T01:47:29.034Z,23.42
2018-08-30T01:48:38.196Z,23.43
2018-08-30T01:49:47.352Z,23.39
2018-08-30T01:50:56.773Z,23.35
2018-08-30T01:52:05.923Z,23.39
2018-08-30T01:53:15.335Z,23.38
2018-08-30T01:54:25.052Z,23.36
2018-08-30T01:55:34.738Z,23.35
2018-08-30T01:56:43.641Z,23.39
2018-08-30T01:57:52.868Z,23.38
2018-08-30T01:59:02.566Z,23.31
2018-08-30T02:00:12.506Z,23.39
2018-08-30T02:01:21.919Z,23.32
2018-08-30T02:02:31.593Z,23.4
2018-08-30T02:03:40.753Z,23.38
2018-08-30T02:04:50.176Z,23.36
2018-08-30T02:05:59.629Z,23.39
2018-08-30T02:07:09.049Z,23.38
2018-08-30T02:08:18.213Z,23.35
2018-08-30T02:09:27.391Z,23.4
2018-08-30T02:10:36.549Z,23.38
2018-08-30T02:11:45.458Z,23.4
2018-08-30T02:12:54.632Z,23.36
2018-08-30T02:14:04.340Z,23.38
2018-08-30T02:15:13.511Z,23.38
2018-08-30T02:16:22.964Z,23.4
2018-08-30T02:17:32.376Z,23.38
2018-08-30T02:18:42.039Z,23.33
2018-08-30T02:19:51.994Z,23.38
2018-08-30T02:21:01.701Z,23.4
2018-08-30T02:22:11.395Z,23.4
2018-08-30T02:23:20.822Z,23.43
2018-08-30T02:24:30.517Z,23.38
2018-08-30T02:25:39.677Z,23.33
2018-08-30T02:26:49.355Z,23.39
2018-08-30T02:27:58.270Z,23.36
2018-08-30T02:29:07.697Z,23.39
2018-08-30T02:30:16.604Z,23.39
2018-08-30T02:31:26.030Z,23.35
2018-08-30T02:32:35.471Z,23.4
2018-08-30T02:33:44.635Z,23.4
2018-08-30T02:34:53.533Z,23.31
2018-08-30T02:36:02.963Z,23.35
2018-08-30T02:37:12.390Z,23.42
2018-08-30T02:38:22.093Z,23.4
2018-08-30T02:39:31.783Z,23.36
2018-08-30T02:40:41.210Z,23.39
2018-08-30T02:41:50.920Z,23.35
2018-08-30T02:43:00.864Z,23.35
2018-08-30T02:44:10.544Z,23.39
2018-08-30T02:45:19.459Z,23.4
2018-08-30T02:46:28.896Z,23.43
2018-08-30T02:47:38.313Z,23.35
2018-08-30T02:48:47.991Z,23.38
2018-08-30T02:49:57.176Z,23.36
2018-08-30T02:51:06.878Z,23.32
2018-08-30T02:52:16.603Z,23.39
2018-08-30T02:53:26.010Z,23.38
2018-08-30T02:54:35.466Z,23.38
2018-08-30T02:55:44.708Z,23.43
2018-08-30T02:56:53.377Z,23.38
2018-08-30T02:58:03.065Z,23.36
2018-08-30T02:59:12.494Z,23.28
2018-08-30T03:00:21.661Z,23.38
2018-08-30T03:01:30.823Z,23.39
2018-08-30T03:02:40.257Z,23.35
2018-08-30T03:03:49.961Z,23.38
2018-08-30T03:04:58.900Z,23.38
2018-08-30T03:06:08.856Z,23.39
2018-08-30T03:07:18.516Z,23.28
2018-08-30T03:08:27.932Z,23.36
2018-08-30T03:09:37.355Z,23.38
2018-08-30T03:10:46.536Z,23.42
2018-08-30T03:11:56.219Z,23.32
2018-08-30T03:13:06.159Z,23.22
2018-08-30T03:14:15.348Z,23.33
2018-08-30T03:15:25.033Z,23.28
2018-08-30T03:16:34.468Z,23.38
2018-08-30T03:17:43.395Z,23.39
2018-08-30T03:18:53.087Z,23.2
2018-08-30T03:20:02.004Z,23.39
2018-08-30T03:21:11.428Z,23.27
2018-08-30T03:22:21.101Z,23.23
2018-08-30T03:23:30.798Z,23.31
2018-08-30T03:24:40.248Z,23.25
2018-08-30T03:25:49.426Z,23.32
2018-08-30T03:26:58.606Z,23.23
2018-08-30T03:28:08.286Z,23.25
2018-08-30T03:29:17.708Z,23.27
2018-08-30T03:30:27.712Z,23.25
2018-08-30T03:31:37.548Z,23.28
2018-08-30T03:32:46.999Z,23.31
2018-08-30T03:33:56.452Z,23.25
2018-08-30T03:35:06.158Z,23.25
2018-08-30T03:36:15.588Z,23.27
2018-08-30T03:37:24.984Z,23.23
2018-08-30T03:38:35.117Z,23.23
2018-08-30T03:39:44.839Z,23.23
2018-08-30T03:40:54.544Z,23.31
2018-08-30T03:42:03.731Z,23.22
2018-08-30T03:43:13.174Z,23.28
2018-08-30T03:44:22.615Z,23.33
2018-08-30T03:45:32.032Z,23.27
2018-08-30T03:46:41.714Z,23.22
2018-08-30T03:47:50.921Z,23.28
2018-08-30T03:49:00.620Z,23.23
2018-08-30T03:50:10.055Z,23.23
2018-08-30T03:51:19.219Z,23.25
2018-08-30T03:52:28.392Z,23.36
2018-08-30T03:53:37.840Z,23.27
2018-08-30T03:54:47.785Z,23.31
2018-08-30T03:55:57.207Z,23.27
2018-08-30T03:57:06.887Z,23.22
2018-08-30T03:58:16.307Z,23.23
2018-08-30T03:59:25.729Z,23.32
2018-08-30T04:00:35.164Z,23.2
2018-08-30T04:01:44.071Z,23.32
2018-08-30T04:02:53.768Z,23.27
2018-08-30T04:04:03.475Z,23.27
2018-08-30T04:05:12.918Z,23.28
2018-08-30T04:06:22.871Z,23.22
2018-08-30T04:07:32.537Z,23.23
2018-08-30T04:08:42.475Z,23.27
2018-08-30T04:09:52.336Z,23.2
2018-08-30T04:11:01.819Z,23.27
2018-08-30T04:12:10.741Z,23.23
2018-08-30T04:13:19.726Z,23.28
2018-08-30T04:14:29.281Z,23.25
2018-08-30T04:15:38.478Z,23.27
2018-08-30T04:16:47.650Z,23.23
2018-08-30T04:17:56.824Z,23.27
2018-08-30T04:19:05.740Z,23.19
2018-08-30T04:20:15.440Z,23.31
2018-08-30T04:21:24.866Z,23.23
2018-08-30T04:22:34.284Z,23.15
2018-08-30T04:23:43.961Z,23.15
2018-08-30T04:24:53.640Z,23.2
2018-08-30T04:26:03.352Z,23.19
2018-08-30T04:27:13.324Z,23.28
2018-08-30T04:28:22.770Z,23.27
2018-08-30T04:29:32.199Z,23.22
2018-08-30T04:30:41.392Z,23.25
2018-08-30T04:31:50.551Z,23.22
2018-08-30T04:32:59.718Z,23.25
2018-08-30T04:34:09.147Z,23.16
2018-08-30T04:35:18.318Z,23.28
2018-08-30T04:36:27.487Z,23.19
2018-08-30T04:37:36.937Z,23.28
2018-08-30T04:38:46.115Z,23.27
2018-08-30T04:39:55.801Z,23.25
2018-08-30T04:41:05.765Z,23.31
2018-08-30T04:42:15.860Z,23.31
2018-08-30T04:43:25.612Z,23.25
2018-08-30T04:44:35.095Z,23.22
2018-08-30T04:45:44.523Z,23.38
2018-08-30T04:46:54.210Z,23.39
2018-08-30T04:48:03.381Z,23.42
2018-08-30T04:49:12.804Z,23.36
2018-08-30T04:50:22.403Z,23.39
2018-08-30T04:51:31.847Z,23.36
2018-08-30T04:52:41.011Z,23.32
2018-08-30T04:53:50.182Z,23.39
2018-08-30T04:54:59.598Z,23.39
2018-08-30T04:56:08.781Z,23.43
2018-08-30T04:57:18.239Z,23.43
2018-08-30T04:58:27.410Z,23.39
2018-08-30T04:59:37.274Z,23.42
2018-08-30T05:00:46.951Z,23.47
2018-08-30T05:01:56.293Z,23.42
2018-08-30T05:03:05.478Z,23.42
2018-08-30T05:04:15.162Z,23.51
2018-08-30T05:05:24.331Z,23.47
2018-08-30T05:06:34.002Z,23.4
2018-08-30T05:07:42.932Z,23.47
2018-08-30T05:08:52.794Z,23.5
2018-08-30T05:10:02.395Z,23.54
2018-08-30T05:11:12.002Z,23.53
2018-08-30T05:12:21.429Z,23.51
2018-08-30T05:13:30.863Z,23.5
2018-08-30T05:14:40.294Z,23.51
2018-08-30T05:15:49.751Z,23.55
2018-08-30T05:16:59.425Z,23.57
2018-08-30T05:18:08.874Z,23.57
2018-08-30T05:19:18.330Z,23.54
2018-08-30T05:20:28.273Z,23.53
2018-08-30T05:21:37.988Z,23.54
2018-08-30T05:22:47.148Z,23.51
2018-08-30T05:23:56.051Z,23.53
2018-08-30T05:25:05.478Z,23.51
2018-08-30T05:26:14.902Z,23.58
2018-08-30T05:27:24.321Z,23.58
2018-08-30T05:28:33.803Z,23.55
2018-08-30T05:29:43.653Z,23.54
2018-08-30T05:30:52.975Z,23.6
2018-08-30T05:32:02.151Z,23.58
2018-08-30T05:33:11.318Z,23.61
2018-08-30T05:34:20.995Z,23.63
2018-08-30T05:35:30.421Z,23.61
2018-08-30T05:36:39.904Z,23.61
2018-08-30T05:37:48.561Z,23.61
2018-08-30T05:38:58.315Z,23.65
2018-08-30T05:40:07.488Z,23.6
2018-08-30T05:41:17.165Z,23.69
2018-08-30T05:42:26.325Z,23.65
2018-08-30T05:43:35.756Z,23.61
2018-08-30T05:44:45.301Z,23.66
2018-08-30T05:45:54.362Z,23.61
2018-08-30T05:47:03.323Z,23.65
2018-08-30T05:48:12.493Z,23.68
2018-08-30T05:49:21.951Z,23.7
2018-08-30T05:50:31.119Z,23.68
2018-08-30T05:51:40.319Z,23.72
2018-08-30T05:52:49.733Z,23.65
2018-08-30T05:53:59.409Z,23.66
2018-08-30T05:55:08.563Z,23.63
2018-08-30T05:56:17.733Z,23.63
2018-08-30T05:57:26.409Z,23.65
2018-08-30T05:58:35.580Z,23.68
2018-08-30T05:59:44.508Z,23.66
2018-08-30T06:00:54.480Z,23.65
2018-08-30T06:02:04.159Z,23.63
2018-08-30T06:03:13.597Z,23.72
2018-08-30T06:04:23.018Z,23.68
2018-08-30T06:05:31.946Z,23.68
2018-08-30T06:06:41.374Z,23.63
2018-08-30T06:07:50.794Z,23.63
2018-08-30T06:09:00.217Z,23.72
2018-08-30T06:10:09.902Z,23.65
2018-08-30T06:11:19.356Z,23.63
2018-08-30T06:12:29.302Z,23.63
2018-08-30T06:13:38.725Z,23.69
2018-08-30T06:14:47.914Z,23.68
2018-08-30T06:15:57.078Z,23.75
2018-08-30T06:17:06.513Z,23.63
2018-08-30T06:18:15.420Z,23.72
2018-08-30T06:19:24.894Z,23.66
2018-08-30T06:20:34.316Z,23.66
2018-08-30T06:21:43.753Z,23.63
2018-08-30T06:22:52.928Z,23.73
2018-08-30T06:24:02.619Z,23.66
2018-08-30T06:25:12.307Z,23.63
2018-08-30T06:26:21.984Z,23.68
2018-08-30T06:27:31.416Z,23.65
2018-08-30T06:28:40.585Z,23.68
2018-08-30T06:29:49.751Z,23.68
2018-08-30T06:30:59.705Z,23.66
2018-08-30T06:32:08.879Z,23.69
2018-08-30T06:33:18.299Z,23.63
2018-08-30T06:34:27.716Z,23.66
2018-08-30T06:35:37.282Z,23.68
2018-08-30T06:36:46.472Z,23.65
2018-08-30T06:37:55.652Z,23.61
2018-08-30T06:39:04.310Z,23.65
2018-08-30T06:40:13.759Z,23.65
2018-08-30T06:41:22.922Z,23.63
2018-08-30T06:42:32.351Z,23.69
2018-08-30T06:43:42.031Z,23.65
2018-08-30T06:44:51.471Z,23.69
2018-08-30T06:46:00.882Z,23.66
2018-08-30T06:47:09.796Z,23.7
2018-08-30T06:48:18.968Z,23.65
2018-08-30T06:49:28.399Z,23.63
2018-08-30T06:50:37.553Z,23.68
2018-08-30T06:51:47.220Z,23.65
2018-08-30T06:52:56.901Z,23.63
2018-08-30T06:54:06.080Z,23.63
2018-08-30T06:55:15.507Z,23.6
2018-08-30T06:56:24.787Z,23.63
2018-08-30T06:57:34.972Z,23.63
2018-08-30T06:58:44.396Z,23.69
2018-08-30T06:59:53.841Z,23.6
2018-08-30T07:01:03.261Z,23.65
2018-08-30T07:02:12.426Z,23.61
2018-08-30T07:03:21.860Z,23.63
2018-08-30T07:04:31.298Z,23.76
2018-08-30T07:05:40.204Z,23.63
2018-08-30T07:06:49.910Z,23.66
2018-08-30T07:07:59.599Z,23.63
2018-08-30T07:09:09.451Z,23.79
2018-08-30T07:10:19.385Z,23.66
2018-08-30T07:11:28.819Z,23.75
2018-08-30T07:12:38.494Z,23.75
2018-08-30T07:13:47.640Z,23.78
2018-08-30T07:14:56.960Z,23.85
2018-08-30T07:16:06.292Z,23.75
2018-08-30T07:17:15.954Z,23.75
2018-08-30T07:18:25.383Z,23.83
2018-08-30T07:19:35.322Z,23.83
2018-08-30T07:20:44.759Z,23.73
2018-08-30T07:21:53.648Z,23.73
2018-08-30T07:23:02.296Z,23.84
2018-08-30T07:24:12.384Z,23.84
2018-08-30T07:25:21.881Z,23.79
2018-08-30T07:26:31.055Z,23.78
2018-08-30T07:27:40.503Z,23.87
2018-08-30T07:28:49.932Z,23.87
2018-08-30T07:29:59.354Z,23.94
2018-08-30T07:31:08.517Z,23.91
2018-08-30T07:32:18.202Z,23.83
2018-08-30T07:33:27.127Z,23.98
2018-08-30T07:34:36.771Z,23.9
2018-08-30T07:35:46.113Z,23.9
2018-08-30T07:36:55.031Z,23.83
2018-08-30T07:38:04.985Z,23.9
2018-08-30T07:39:14.438Z,23.88
2018-08-30T07:40:24.121Z,23.9
2018-08-30T07:41:33.819Z,23.94
2018-08-30T07:42:42.987Z,23.87
2018-08-30T07:43:52.145Z,23.88
2018-08-30T07:45:01.040Z,23.91
2018-08-30T07:46:10.708Z,23.91
2018-08-30T07:47:20.695Z,23.87
2018-08-30T07:48:30.155Z,23.93
2018-08-30T07:49:39.068Z,23.95
2018-08-30T07:50:48.421Z,23.94
2018-08-30T07:51:58.509Z,23.97
2018-08-30T07:53:08.451Z,23.97
2018-08-30T07:54:17.615Z,23.95
2018-08-30T07:55:27.151Z,24.06
2018-08-30T07:56:36.325Z,24
2018-08-30T07:57:45.776Z,23.98
2018-08-30T07:58:54.953Z,23.94
2018-08-30T08:00:05.186Z,24.08
2018-08-30T08:01:15.561Z,23.94
2018-08-30T08:02:24.466Z,24.03
2018-08-30T08:03:33.915Z,23.95
2018-08-30T08:04:43.342Z,24.06
2018-08-30T08:05:52.306Z,24.03
2018-08-30T08:07:02.301Z,23.94
2018-08-30T08:08:11.800Z,24.05
2018-08-30T08:09:20.976Z,24.02
2018-08-30T08:10:30.655Z,24.08
2018-08-30T08:11:39.830Z,23.93
2018-08-30T08:12:49.828Z,23.95
2018-08-30T08:13:58.744Z,24.03
2018-08-30T08:15:08.168Z,24.03
2018-08-30T08:16:18.096Z,24.08
2018-08-30T08:17:27.775Z,23.94
2018-08-30T08:18:37.200Z,24.02
2018-08-30T08:19:46.625Z,23.98
2018-08-30T08:20:56.070Z,24
2018-08-30T08:22:05.766Z,23.94
2018-08-30T08:23:15.182Z,24.05
2018-08-30T08:24:24.094Z,24.05
2018-08-30T08:25:33.373Z,24.03
2018-08-30T08:26:43.327Z,23.95
2018-08-30T08:27:52.744Z,24.03
2018-08-30T08:29:01.921Z,24.05
2018-08-30T08:30:11.083Z,24.05
2018-08-30T08:31:20.293Z,24.05
2018-08-30T08:32:30.486Z,24.03
2018-08-30T08:33:39.649Z,24.05
2018-08-30T08:34:49.085Z,24.08
2018-08-30T08:35:58.517Z,24.1
2018-08-30T08:37:08.186Z,24.05
2018-08-30T08:38:17.360Z,24.06
2018-08-30T08:39:26.800Z,24.1
2018-08-30T08:40:36.003Z,24.05
2018-08-30T08:41:45.689Z,23.95
2018-08-30T08:42:54.629Z,24.06
2018-08-30T08:44:04.311Z,24.08
2018-08-30T08:45:13.743Z,24.06
2018-08-30T08:46:23.164Z,24.08
2018-08-30T08:47:33.096Z,24.08
2018-08-30T08:48:41.764Z,23.95
2018-08-30T08:49:50.955Z,24.03
2018-08-30T08:50:59.871Z,24.02
2018-08-30T08:52:09.587Z,24.06
2018-08-30T08:53:18.782Z,24.05
2018-08-30T08:54:28.014Z,24.05
2018-08-30T08:55:36.945Z,23.95
2018-08-30T08:56:46.347Z,24.02
2018-08-30T08:57:55.504Z,24.09
2018-08-30T08:59:05.262Z,24.02
2018-08-30T09:00:14.496Z,24.03
2018-08-30T09:01:23.902Z,24.06
2018-08-30T09:02:33.418Z,24.09
2018-08-30T09:03:42.646Z,24.1
2018-08-30T09:04:51.796Z,24.03
2018-08-30T09:06:01.217Z,24.06
2018-08-30T09:07:11.000Z,24.08
2018-08-30T09:08:20.994Z,24.03
2018-08-30T09:09:30.679Z,24
2018-08-30T09:10:40.114Z,24.06
2018-08-30T09:11:49.831Z,24.1
2018-08-30T09:12:59.254Z,24.1
2018-08-30T09:14:08.953Z,24.1
2018-08-30T09:15:18.377Z,24.08
2018-08-30T09:16:27.802Z,24.09
2018-08-30T09:17:36.704Z,24.13
2018-08-30T09:18:46.385Z,24.09
2018-08-30T09:19:56.121Z,24.06
2018-08-30T09:21:05.800Z,24.12
2018-08-30T09:22:15.490Z,24.1
2018-08-30T09:23:24.208Z,24.13
2018-08-30T09:24:33.895Z,24.09
2018-08-30T09:25:43.578Z,24.06
2018-08-30T09:26:52.624Z,24.05
2018-08-30T09:28:02.885Z,24.05
2018-08-30T09:29:12.310Z,24.09
2018-08-30T09:30:22.244Z,24.09
2018-08-30T09:31:31.664Z,24.09
2018-08-30T09:32:41.342Z,24.09
2018-08-30T09:33:51.219Z,24.18
2018-08-30T09:35:00.965Z,24.09
2018-08-30T09:36:10.402Z,24.16
2018-08-30T09:37:19.569Z,24.12
2018-08-30T09:38:29.004Z,24.08
2018-08-30T09:39:37.925Z,24.03
2018-08-30T09:40:47.359Z,24.09
2018-08-30T09:41:56.532Z,24.08
2018-08-30T09:43:05.453Z,24.09
2018-08-30T09:44:14.104Z,24.08
2018-08-30T09:45:23.792Z,24.13
2018-08-30T09:46:32.433Z,24.15
2018-08-30T09:47:42.137Z,24.16
2018-08-30T09:48:51.595Z,24.06
2018-08-30T09:50:01.032Z,24.13
2018-08-30T09:51:10.225Z,24.06
2018-08-30T09:52:18.894Z,24.06
2018-08-30T09:53:28.075Z,24.05
2018-08-30T09:54:37.009Z,24.03
2018-08-30T09:55:47.175Z,24.02
2018-08-30T09:56:57.091Z,24.08
2018-08-30T09:58:06.041Z,24.15
2018-08-30T09:59:15.472Z,24.1
2018-08-30T10:00:24.379Z,24.18
2018-08-30T10:01:33.804Z,24.18
2018-08-30T10:02:43.239Z,24.18
2018-08-30T10:03:52.534Z,24.03
2018-08-30T10:05:01.951Z,24.09
2018-08-30T10:06:11.665Z,24.06
2018-08-30T10:07:20.888Z,24.15
2018-08-30T10:08:30.315Z,24.05
2018-08-30T10:09:39.492Z,24.05
2018-08-30T10:10:49.232Z,24.06
2018-08-30T10:11:58.409Z,24.05
2018-08-30T10:13:07.575Z,24.16
2018-08-30T10:14:17.280Z,24.06
2018-08-30T10:15:26.962Z,24.09
2018-08-30T10:16:36.391Z,24.1
2018-08-30T10:17:45.821Z,24.22
2018-08-30T10:18:54.796Z,24.15
2018-08-30T10:20:04.577Z,24.15
2018-08-30T10:21:13.999Z,24.2
2018-08-30T10:22:23.510Z,24.25
2018-08-30T10:23:32.680Z,24.2
2018-08-30T10:24:42.346Z,24.06
2018-08-30T10:25:51.290Z,24.2
2018-08-30T10:27:01.069Z,24.2
2018-08-30T10:28:10.514Z,24.09
2018-08-30T10:29:19.758Z,24.18
2018-08-30T10:30:29.168Z,24.13
2018-08-30T10:31:38.990Z,24.22
2018-08-30T10:32:48.285Z,24.1
2018-08-30T10:33:57.455Z,24.16
2018-08-30T10:35:06.897Z,24.16
2018-08-30T10:36:16.078Z,24.2
2018-08-30T10:37:25.782Z,24.22
2018-08-30T10:38:34.958Z,24.08
2018-08-30T10:39:44.656Z,24.21
2018-08-30T10:40:54.074Z,24.1
2018-08-30T10:42:03.749Z,24.21
2018-08-30T10:43:12.931Z,24.21
2018-08-30T10:44:22.378Z,24.24
2018-08-30T10:45:32.071Z,24.13
2018-08-30T10:46:41.490Z,24.27
2018-08-30T10:47:50.655Z,24.2
2018-08-30T10:49:00.081Z,24.2
2018-08-30T10:50:09.498Z,24.21
2018-08-30T10:51:18.965Z,24.27
2018-08-30T10:52:28.378Z,24.18
2018-08-30T10:53:37.546Z,24.21
2018-08-30T10:54:47.002Z,24.16
2018-08-30T10:55:56.165Z,24.1
2018-08-30T10:57:05.337Z,24.15
2018-08-30T10:58:14.293Z,24.21
2018-08-30T10:59:24.244Z,24.16
2018-08-30T11:00:33.951Z,24.15
2018-08-30T11:01:42.846Z,24.2
2018-08-30T11:02:52.289Z,24.25
2018-08-30T11:04:01.499Z,24.22
2018-08-30T11:05:11.213Z,24.18
2018-08-30T11:06:20.378Z,24.2
2018-08-30T11:07:29.784Z,24.2
2018-08-30T11:08:39.209Z,24.25
2018-08-30T11:09:48.964Z,24.16
2018-08-30T11:10:58.438Z,24.16
2018-08-30T11:12:08.135Z,24.2
2018-08-30T11:13:17.960Z,24.24
2018-08-30T11:14:28.094Z,24.2
2018-08-30T11:15:37.536Z,24.24
2018-08-30T11:16:46.719Z,24.15
2018-08-30T11:17:55.882Z,24.2
2018-08-30T11:19:05.315Z,24.18
2018-08-30T11:20:14.231Z,24.22
2018-08-30T11:21:23.916Z,24.13
2018-08-30T11:22:33.338Z,24.1
2018-08-30T11:23:42.825Z,24.16
2018-08-30T11:24:51.763Z,24.21
2018-08-30T11:26:01.195Z,24.24
2018-08-30T11:27:10.689Z,24.15
2018-08-30T11:28:20.382Z,24.22
2018-08-30T11:29:29.804Z,24.2
2018-08-30T11:30:39.234Z,24.22
2018-08-30T11:31:48.400Z,24.24
2018-08-30T11:32:58.112Z,24.24
2018-08-30T11:34:07.804Z,24.3
2018-08-30T11:35:16.709Z,24.28
2018-08-30T11:36:25.886Z,24.28
2018-08-30T11:37:35.423Z,24.24
2018-08-30T11:38:45.307Z,24.27
2018-08-30T11:39:54.485Z,24.31
2018-08-30T11:41:03.648Z,24.21
2018-08-30T11:42:13.384Z,24.3
2018-08-30T11:43:22.975Z,24.2
2018-08-30T11:44:32.857Z,24.24
2018-08-30T11:45:42.819Z,24.28
2018-08-30T11:46:52.500Z,24.21
2018-08-30T11:48:01.682Z,24.24
2018-08-30T11:49:11.382Z,24.13
2018-08-30T11:50:20.293Z,24.22
2018-08-30T11:51:29.727Z,24.27
2018-08-30T11:52:39.830Z,24.27
2018-08-30T11:53:49.417Z,24.3
2018-08-30T11:54:59.106Z,24.12
2018-08-30T11:56:08.036Z,24.3
2018-08-30T11:57:17.455Z,24.31
2018-08-30T11:58:26.394Z,24.28
2018-08-30T11:59:36.085Z,24.32
2018-08-30T12:00:46.187Z,24.3
2018-08-30T12:01:55.616Z,24.31
2018-08-30T12:03:05.329Z,24.25
2018-08-30T12:04:15.068Z,24.28
2018-08-30T12:05:24.477Z,24.35
2018-08-30T12:06:34.436Z,24.24
2018-08-30T12:07:43.653Z,24.18
2018-08-30T12:08:52.938Z,24.32
2018-08-30T12:10:02.359Z,24.28
2018-08-30T12:11:12.159Z,24.31
2018-08-30T12:12:21.137Z,24.27
2018-08-30T12:13:30.051Z,24.2
2018-08-30T12:14:39.209Z,24.31
2018-08-30T12:15:48.655Z,24.24
2018-08-30T12:16:58.082Z,24.32
2018-08-30T12:18:07.276Z,24.28
2018-08-30T12:19:16.455Z,24.27
2018-08-30T12:20:26.273Z,24.13
2018-08-30T12:21:35.449Z,24.12
2018-08-30T12:22:45.393Z,24.28
2018-08-30T12:23:54.819Z,24.1
2018-08-30T12:25:04.256Z,24.31
2018-08-30T12:26:13.666Z,24.31
2018-08-30T12:27:22.596Z,24.3
2018-08-30T12:28:32.378Z,24.27
2018-08-30T12:29:42.483Z,24.12
2018-08-30T12:30:52.569Z,24.28
2018-08-30T12:32:01.918Z,24.12
2018-08-30T12:33:12.037Z,24.28
2018-08-30T12:34:22.023Z,24.27
2018-08-30T12:35:31.547Z,24.31
2018-08-30T12:36:41.598Z,24.1
2018-08-30T12:37:51.744Z,24.25
2018-08-30T12:39:01.082Z,24.27
2018-08-30T12:40:11.173Z,24.25
2018-08-30T12:41:21.110Z,24.28
2018-08-30T12:42:30.483Z,24.2
2018-08-30T12:43:40.257Z,24.27
2018-08-30T12:44:49.590Z,24.31
2018-08-30T12:45:59.153Z,24.3
2018-08-30T12:47:08.159Z,24.32
2018-08-30T12:48:17.649Z,24.28
2018-08-30T12:49:27.425Z,24.28
2018-08-30T12:50:37.394Z,24.22
2018-08-30T12:51:48.881Z,24.3
2018-08-30T12:52:59.722Z,24.3
2018-08-30T12:54:10.347Z,24.31
2018-08-30T12:55:20.996Z,24.24
2018-08-30T12:56:30.395Z,24.31
2018-08-30T12:57:40.135Z,24.32
2018-08-30T12:58:50.715Z,24.28
2018-08-30T13:00:01.655Z,24.3
2018-08-30T13:01:12.069Z,24.3
2018-08-30T13:02:21.326Z,24.31
2018-08-30T13:03:32.212Z,24.32
2018-08-30T13:04:43.696Z,24.31
2018-08-30T13:05:54.464Z,24.31
2018-08-30T13:07:06.475Z,24.32
2018-08-30T13:08:18.146Z,24.32
2018-08-30T13:09:29.326Z,24.34
2018-08-30T13:10:40.863Z,24.39
2018-08-30T13:11:53.472Z,24.3
2018-08-30T13:13:04.412Z,24.3
2018-08-30T13:14:16.797Z,24.3
2018-08-30T13:15:27.789Z,24.37
2018-08-30T13:16:39.870Z,24.31
2018-08-30T13:17:50.855Z,24.31
2018-08-30T13:19:02.133Z,24.28
2018-08-30T13:20:13.108Z,24.31
2018-08-30T13:21:23.753Z,24.37
2018-08-30T13:22:35.042Z,24.31
2018-08-30T13:23:47.858Z,24.43
2018-08-30T13:24:58.530Z,24.31
2018-08-30T13:26:10.880Z,24.37
2018-08-30T13:27:21.889Z,24.27
2018-08-30T13:28:33.256Z,24.37
2018-08-30T13:29:44.350Z,24.42
2018-08-30T13:30:58.033Z,24.22
2018-08-30T13:32:10.516Z,24.28
2018-08-30T13:33:25.347Z,24.45
2018-08-30T13:34:38.334Z,24.42
2018-08-30T13:35:51.622Z,24.32
2018-08-30T13:37:04.069Z,24.43
2018-08-30T13:38:17.309Z,24.45
2018-08-30T13:39:31.970Z,24.35
2018-08-30T13:40:46.352Z,24.31
2018-08-30T13:42:01.459Z,24.32
2018-08-30T13:43:11.401Z,24.34
2018-08-30T13:44:22.906Z,24.32
2018-08-30T13:45:33.761Z,24.46
2018-08-30T13:46:45.462Z,24.3
2018-08-30T13:47:55.975Z,24.42
2018-08-30T13:49:09.939Z,24.43
2018-08-30T13:50:21.348Z,24.45
2018-08-30T13:51:31.890Z,24.37
2018-08-30T13:52:44.043Z,24.35
2018-08-30T13:53:56.642Z,24.42
2018-08-30T13:55:09.131Z,24.43
2018-08-30T13:56:20.845Z,24.42
2018-08-30T13:57:35.951Z,24.31
2018-08-30T13:58:49.452Z,24.39
2018-08-30T14:00:03.697Z,24.43
2018-08-30T14:01:19.539Z,24.53
2018-08-30T14:02:31.336Z,24.32
2018-08-30T14:03:39.888Z,24.43
2018-08-30T14:04:52.918Z,24.45
2018-08-30T14:06:05.082Z,24.42
2018-08-30T14:07:18.227Z,24.34
2018-08-30T14:08:29.962Z,24.42
2018-08-30T14:09:41.799Z,24.28
2018-08-30T14:10:53.017Z,24.43
2018-08-30T14:12:04.202Z,24.37
2018-08-30T14:13:17.672Z,24.32
2018-08-30T14:14:27.875Z,24.34
2018-08-30T14:15:39.122Z,24.45
2018-08-30T14:16:48.290Z,24.4
2018-08-30T14:17:58.084Z,24.3
2018-08-30T14:19:08.610Z,24.45
2018-08-30T14:20:18.574Z,24.43
2018-08-30T14:21:28.347Z,24.31
2018-08-30T14:22:37.767Z,24.43
2018-08-30T14:23:47.300Z,24.43
2018-08-30T14:24:57.152Z,24.45
2018-08-30T14:26:06.767Z,24.43
2018-08-30T14:27:16.033Z,24.45
2018-08-30T14:28:25.783Z,24.32
2018-08-30T14:29:35.991Z,24.45
2018-08-30T14:30:45.518Z,24.43
2018-08-30T14:31:54.690Z,24.47
2018-08-30T14:33:04.923Z,24.45
2018-08-30T14:34:15.345Z,24.45
2018-08-30T14:35:25.275Z,24.37
2018-08-30T14:36:34.707Z,24.42
2018-08-30T14:37:43.736Z,24.43
2018-08-30T14:38:53.335Z,24.34
2018-08-30T14:40:02.938Z,24.42
2018-08-30T14:41:13.507Z,24.46
2018-08-30T14:42:24.080Z,24.45
2018-08-30T14:43:33.634Z,24.28
2018-08-30T14:44:42.869Z,24.32
2018-08-30T14:45:52.675Z,24.43
2018-08-30T14:47:01.846Z,24.42
2018-08-30T14:48:11.866Z,24.4
2018-08-30T14:49:21.385Z,24.43
2018-08-30T14:50:30.564Z,24.32
2018-08-30T14:51:39.731Z,24.43
2018-08-30T14:52:49.560Z,24.42
2018-08-30T14:53:59.380Z,24.45
2018-08-30T14:55:09.256Z,24.46
2018-08-30T14:56:18.904Z,24.43
2018-08-30T14:57:28.558Z,24.31
2018-08-30T14:58:37.563Z,24.31
2018-08-30T14:59:46.473Z,24.35
2018-08-30T15:00:55.976Z,24.31